Time;durP1;ratioP1;P1;durP2;ratioP2;P2;SDS_P1;SDS_P2;PMS_P1;PMS_P2;Temp;Humidity;BMP_temperature;BMP_pressure;BME280_temperature;BME280_humidity;BME280_pressure;Samples;Min_cycle;Max_cycle;Signal;HPM_P1;HPM_P2
2023/09/10 00:01:23;;;;;;;19.10;17.50;;;21.60;99.90;;;;;;5011129;28;20422;-65
2023/09/10 00:03:49;;;;;;;20.07;17.73;;;21.60;99.90;;;;;;5012257;28;20171;-65
2023/09/10 00:06:15;;;;;;;23.27;18.10;;;21.60;99.90;;;;;;5009246;28;20540;-65
2023/09/10 00:08:41;;;;;;;20.10;18.10;;;21.50;99.90;;;;;;5007643;28;20201;-65
2023/09/10 00:11:06;;;;;;;19.87;18.10;;;21.50;99.90;;;;;;5012506;28;20187;-65
2023/09/10 00:13:32;;;;;;;19.00;17.30;;;21.50;99.90;;;;;;5009979;28;20183;-65
2023/09/10 00:15:58;;;;;;;19.63;18.03;;;21.40;99.90;;;;;;5006544;28;20214;-65
2023/09/10 00:18:24;;;;;;;19.87;18.10;;;21.40;99.90;;;;;;5010934;28;20445;-65
2023/09/10 00:20:52;;;;;;;20.00;18.20;;;21.40;99.90;;;;;;5012046;28;20237;-65
2023/09/10 00:23:17;;;;;;;19.63;17.93;;;21.40;99.90;;;;;;5015709;28;20449;-65
2023/09/10 00:25:43;;;;;;;19.20;17.60;;;21.40;99.90;;;;;;5015676;28;20452;-65
2023/09/10 00:28:09;;;;;;;17.50;16.00;;;21.40;99.90;;;;;;5014922;28;20236;-65
2023/09/10 00:30:35;;;;;;;17.87;16.27;;;21.40;99.90;;;;;;5012736;28;20312;-65
2023/09/10 00:33:01;;;;;;;19.07;17.40;;;21.40;99.90;;;;;;5015732;28;20179;-65
2023/09/10 00:35:27;;;;;;;17.60;16.20;;;21.30;99.90;;;;;;5014994;28;20409;-65
2023/09/10 00:37:53;;;;;;;18.40;16.80;;;21.30;99.90;;;;;;5015270;28;20225;-65
2023/09/10 00:40:19;;;;;;;19.17;17.30;;;21.30;99.90;;;;;;5002499;28;20462;-65
2023/09/10 00:42:44;;;;;;;17.67;16.30;;;21.30;99.90;;;;;;5001058;28;20619;-65
2023/09/10 00:45:14;;;;;;;18.10;16.70;;;21.30;99.90;;;;;;5015937;28;20210;-65
2023/09/10 00:47:44;;;;;;;18.17;16.67;;;21.20;99.90;;;;;;5015592;28;20186;-65
2023/09/10 00:50:10;;;;;;;19.43;17.70;;;21.20;99.90;;;;;;5008863;28;20565;-65
2023/09/10 00:52:41;;;;;;;18.77;17.17;;;21.10;99.90;;;;;;5013165;28;20519;-64
2023/09/10 00:55:07;;;;;;;18.13;16.63;;;21.20;99.90;;;;;;4996389;28;20383;-65
2023/09/10 00:57:33;;;;;;;18.37;16.97;;;21.20;99.90;;;;;;5000658;28;20915;-65
2023/09/10 00:59:59;;;;;;;17.60;16.20;;;21.20;99.90;;;;;;5009218;28;20455;-65
2023/09/10 01:02:26;;;;;;;18.73;17.23;;;21.20;99.90;;;;;;5012839;28;20176;-66
2023/09/10 01:04:52;;;;;;;18.03;16.43;;;21.10;99.90;;;;;;5015415;28;20429;-65
2023/09/10 01:07:17;;;;;;;19.40;17.70;;;21.10;99.90;;;;;;5014770;28;20425;-65
2023/09/10 01:09:43;;;;;;;18.90;17.30;;;21.10;99.90;;;;;;5015053;28;20179;-65
2023/09/10 01:12:14;;;;;;;18.10;16.53;;;21.10;99.90;;;;;;5003208;28;20180;-65
2023/09/10 01:15:13;;;;;;;18.70;17.00;;;21.10;99.90;;;;;;5006906;28;20167;-65
2023/09/10 01:17:53;;;;;;;18.30;16.93;;;21.10;99.90;;;;;;4990233;28;20434;-65
2023/09/10 01:20:57;;;;;;;18.40;16.90;;;21.00;99.90;;;;;;4995219;28;20450;-64
2023/09/10 01:23:36;;;;;;;18.57;16.97;;;21.00;99.90;;;;;;5003344;28;20429;-65
2023/09/10 01:26:02;;;;;;;17.87;16.17;;;21.00;99.90;;;;;;5014130;28;20421;-65
2023/09/10 01:28:28;;;;;;;19.40;17.63;;;21.00;99.90;;;;;;5014742;28;21069;-65
2023/09/10 01:30:53;;;;;;;17.50;16.13;;;21.00;99.90;;;;;;5000838;28;20462;-65
2023/09/10 01:33:27;;;;;;;17.27;15.63;;;21.00;99.90;;;;;;4995439;28;20217;-65
2023/09/10 01:36:08;;;;;;;18.33;16.93;;;21.00;99.90;;;;;;4997845;28;20160;-65
2023/09/10 01:38:46;;;;;;;19.10;17.50;;;21.00;99.90;;;;;;5013647;28;21015;-65
2023/09/10 01:41:19;;;;;;;20.10;18.37;;;20.90;99.90;;;;;;5014525;28;20426;-64
2023/09/10 01:43:46;;;;;;;19.33;17.30;;;20.90;99.90;;;;;;5003360;28;20505;-65
2023/09/10 01:46:14;;;;;;;18.23;16.77;;;21.00;99.90;;;;;;5010852;28;20968;-65
2023/09/10 01:48:39;;;;;;;18.67;16.87;;;20.90;99.90;;;;;;5012367;28;20508;-65
2023/09/10 01:51:05;;;;;;;17.67;16.17;;;20.90;99.90;;;;;;5014336;28;20473;-65
2023/09/10 01:53:31;;;;;;;18.10;16.60;;;20.90;99.90;;;;;;5001403;28;20443;-65
2023/09/10 01:55:57;;;;;;;17.70;16.10;;;20.90;99.90;;;;;;5014419;28;20186;-64
2023/09/10 01:58:23;;;;;;;17.67;16.30;;;20.90;99.90;;;;;;5013978;28;20230;-63
2023/09/10 02:00:49;;;;;;;18.70;17.03;;;20.90;99.90;;;;;;5012806;28;20207;-65
2023/09/10 02:03:15;;;;;;;18.83;17.13;;;20.80;99.90;;;;;;5014127;28;20422;-65
2023/09/10 02:05:42;;;;;;;17.63;16.23;;;20.80;99.90;;;;;;5011987;28;20211;-64
2023/09/10 02:08:08;;;;;;;18.40;16.90;;;20.80;99.90;;;;;;5014632;28;20183;-64
2023/09/10 02:10:34;;;;;;;19.43;17.60;;;20.80;99.90;;;;;;5013812;28;20426;-65
2023/09/10 02:13:00;;;;;;;17.37;15.97;;;20.80;99.90;;;;;;5013836;28;20183;-63
2023/09/10 02:15:26;;;;;;;18.23;16.77;;;20.70;99.90;;;;;;4994206;28;20407;-65
2023/09/10 02:17:56;;;;;;;19.90;18.20;;;20.70;99.90;;;;;;5005626;28;20582;-65
2023/09/10 02:20:22;;;;;;;18.53;17.10;;;20.70;99.90;;;;;;5013227;28;20466;-65
2023/09/10 02:22:48;;;;;;;20.60;17.67;;;20.70;99.90;;;;;;5014203;28;20422;-65
2023/09/10 02:25:14;;;;;;;18.90;17.20;;;20.70;99.90;;;;;;5013838;28;20497;-65
2023/09/10 02:27:40;;;;;;;18.83;17.23;;;20.70;99.90;;;;;;5007474;28;20186;-65
2023/09/10 02:30:07;;;;;;;18.57;16.97;;;20.60;99.90;;;;;;5013330;28;20414;-65
2023/09/10 02:32:34;;;;;;;18.80;17.20;;;20.60;99.90;;;;;;5012489;28;20175;-64
2023/09/10 02:35:00;;;;;;;18.87;17.17;;;20.60;99.90;;;;;;5001738;28;20985;-65
2023/09/10 02:37:25;;;;;;;17.83;16.43;;;20.60;99.90;;;;;;4993023;28;20491;-64
2023/09/10 02:39:51;;;;;;;20.67;18.77;;;20.60;99.90;;;;;;5008959;28;20205;-65
2023/09/10 02:42:17;;;;;;;18.10;16.60;;;20.50;99.90;;;;;;5012816;28;20665;-65
2023/09/10 02:44:43;;;;;;;19.90;18.10;;;20.50;99.90;;;;;;5012692;28;20163;-65
2023/09/10 02:47:09;;;;;;;19.93;18.13;;;20.50;99.90;;;;;;5001617;28;20179;-65
2023/09/10 02:49:35;;;;;;;18.87;17.37;;;20.50;99.90;;;;;;4997323;28;20529;-65
2023/09/10 02:52:01;;;;;;;20.30;18.70;;;20.50;99.90;;;;;;5011553;28;20438;-64
2023/09/10 02:54:28;;;;;;;20.50;18.90;;;20.50;99.90;;;;;;5009568;28;20495;-64
2023/09/10 02:56:54;;;;;;;19.43;17.73;;;20.50;99.90;;;;;;5012487;28;20429;-64
2023/09/10 02:59:21;;;;;;;19.27;17.77;;;20.50;99.90;;;;;;5001905;28;20458;-65
2023/09/10 03:01:48;;;;;;;19.57;18.00;;;20.50;99.90;;;;;;4992983;28;20639;-65
2023/09/10 03:04:14;;;;;;;20.57;18.67;;;20.50;99.90;;;;;;4996760;28;20829;-64
2023/09/10 03:06:42;;;;;;;19.60;18.00;;;20.40;99.90;;;;;;5010620;28;20436;-64
2023/09/10 03:09:08;;;;;;;19.40;17.80;;;20.40;99.90;;;;;;5011235;28;20504;-64
2023/09/10 03:11:37;;;;;;;20.23;18.47;;;20.50;99.90;;;;;;5011880;28;20450;-64
2023/09/10 03:14:03;;;;;;;21.33;19.23;;;20.50;99.90;;;;;;4996190;28;20261;-65
2023/09/10 03:16:29;;;;;;;20.00;18.37;;;20.40;99.90;;;;;;4999046;28;20430;-63
2023/09/10 03:18:54;;;;;;;20.20;18.40;;;20.40;99.90;;;;;;5007225;28;20461;-65
2023/09/10 03:21:21;;;;;;;20.77;18.93;;;20.50;99.90;;;;;;5012273;28;20187;-65
2023/09/10 03:23:47;;;;;;;19.57;18.10;;;20.50;99.90;;;;;;5012073;28;20245;-65
2023/09/10 03:26:13;;;;;;;19.30;17.70;;;20.40;99.90;;;;;;5001490;28;20430;-65
2023/09/10 03:28:39;;;;;;;20.70;18.93;;;20.40;99.90;;;;;;4992354;28;20651;-65
2023/09/10 03:31:06;;;;;;;20.23;18.53;;;20.40;99.90;;;;;;5007877;28;20185;-65
2023/09/10 03:33:32;;;;;;;20.43;18.73;;;20.40;99.90;;;;;;5011290;28;20956;-64
2023/09/10 03:35:57;;;;;;;20.90;19.10;;;20.40;99.90;;;;;;5011994;28;20434;-63
2023/09/10 03:38:23;;;;;;;20.27;18.60;;;20.40;99.90;;;;;;5011605;28;20622;-65
2023/09/10 03:40:49;;;;;;;19.43;17.83;;;20.30;99.90;;;;;;5005270;28;20199;-65
2023/09/10 03:43:16;;;;;;;19.67;18.00;;;20.30;99.90;;;;;;4992913;28;20922;-65
2023/09/10 03:45:42;;;;;;;20.37;18.67;;;20.30;99.90;;;;;;4996823;28;20636;-65
2023/09/10 03:48:08;;;;;;;18.87;17.17;;;20.30;99.90;;;;;;4995726;28;20481;-65
2023/09/10 03:50:34;;;;;;;19.90;18.30;;;20.30;99.90;;;;;;5011361;28;20183;-64
2023/09/10 03:53:00;;;;;;;20.43;18.57;;;20.30;99.90;;;;;;5010759;28;20587;-65
2023/09/10 03:55:26;;;;;;;19.33;17.70;;;20.20;99.90;;;;;;5013530;28;20418;-61
2023/09/10 03:57:52;;;;;;;21.63;19.80;;;20.20;99.90;;;;;;5018616;28;20773;-65
2023/09/10 04:00:19;;;;;;;20.40;18.63;;;20.20;99.90;;;;;;5018357;28;20968;-65
2023/09/10 04:02:45;;;;;;;19.17;17.57;;;20.20;99.90;;;;;;5017502;28;20651;-65
2023/09/10 04:05:12;;;;;;;19.83;18.23;;;20.20;99.90;;;;;;5017461;28;20857;-64
2023/09/10 04:07:38;;;;;;;18.70;17.10;;;20.20;99.90;;;;;;5017815;28;20418;-65
2023/09/10 04:10:06;;;;;;;19.07;17.33;;;20.20;99.90;;;;;;5018620;28;20460;-64
2023/09/10 04:12:31;;;;;;;18.90;17.40;;;20.10;99.90;;;;;;5017648;28;20428;-64
2023/09/10 04:14:58;;;;;;;20.23;18.47;;;20.10;99.90;;;;;;5018414;28;20449;-64
2023/09/10 04:17:28;;;;;;;20.67;18.87;;;20.10;99.90;;;;;;5017408;28;20549;-64
2023/09/10 04:19:54;;;;;;;20.60;18.70;;;20.10;99.90;;;;;;5018206;28;20207;-65
2023/09/10 04:22:20;;;;;;;19.60;17.90;;;20.10;99.90;;;;;;5018223;28;20426;-65
2023/09/10 04:24:46;;;;;;;19.90;18.17;;;20.10;99.90;;;;;;5015090;28;21210;-65
2023/09/10 04:27:12;;;;;;;20.37;18.83;;;20.10;99.90;;;;;;5018057;28;20516;-64
2023/09/10 04:29:38;;;;;;;19.90;18.23;;;20.10;99.90;;;;;;5017786;28;20183;-65
2023/09/10 04:32:04;;;;;;;22.80;19.00;;;20.10;99.90;;;;;;5017487;28;20914;-64
2023/09/10 04:34:29;;;;;;;20.50;18.50;;;20.10;99.90;;;;;;5017794;28;20598;-61
2023/09/10 04:36:55;;;;;;;19.43;17.77;;;20.10;99.90;;;;;;5018140;28;20175;-65
2023/09/10 04:39:21;;;;;;;19.10;17.60;;;20.10;99.90;;;;;;5004684;28;20231;-65
2023/09/10 04:41:47;;;;;;;20.90;19.20;;;20.00;99.90;;;;;;5002066;28;20418;-64
2023/09/10 04:44:13;;;;;;;19.37;17.80;;;20.00;99.90;;;;;;5006923;28;20654;-62
2023/09/10 04:46:38;;;;;;;19.70;18.20;;;20.00;99.90;;;;;;5011524;28;20623;-64
2023/09/10 04:49:04;;;;;;;19.13;17.53;;;20.00;99.90;;;;;;5011951;28;20187;-65
2023/09/10 04:51:30;;;;;;;20.77;19.07;;;20.00;99.90;;;;;;5016316;28;20198;-61
2023/09/10 04:53:56;;;;;;;20.87;19.00;;;20.00;99.90;;;;;;5015471;28;20253;-64
2023/09/10 04:56:22;;;;;;;20.20;18.63;;;20.00;99.90;;;;;;5015722;28;20648;-64
2023/09/10 04:58:47;;;;;;;21.60;19.50;;;20.00;99.90;;;;;;5011554;28;20182;-64
2023/09/10 05:01:14;;;;;;;20.20;18.57;;;20.00;99.90;;;;;;4995688;28;20433;-63
2023/09/10 05:03:41;;;;;;;21.33;19.43;;;20.00;99.90;;;;;;5013370;28;20174;-65
2023/09/10 05:06:08;;;;;;;21.20;18.97;;;20.00;99.90;;;;;;5017505;28;20909;-65
2023/09/10 05:08:34;;;;;;;21.30;19.53;;;20.00;99.90;;;;;;5012820;28;20428;-65
2023/09/10 05:11:00;;;;;;;19.97;18.30;;;20.00;99.90;;;;;;5012904;28;20422;-65
2023/09/10 05:13:26;;;;;;;19.70;18.20;;;20.00;99.90;;;;;;5010292;28;20512;-64
2023/09/10 05:15:57;;;;;;;20.50;18.83;;;20.00;99.90;;;;;;5009464;28;20438;-65
2023/09/10 05:18:26;;;;;;;20.30;18.60;;;20.00;99.90;;;;;;5009206;28;20414;-64
2023/09/10 05:20:52;;;;;;;19.80;18.20;;;20.00;99.90;;;;;;5008133;28;20466;-65
2023/09/10 05:23:22;;;;;;;18.90;17.40;;;20.00;99.90;;;;;;5011088;28;20422;-64
2023/09/10 05:25:48;;;;;;;19.13;17.70;;;20.00;99.90;;;;;;5007662;28;20512;-63
2023/09/10 05:28:14;;;;;;;18.93;17.23;;;20.00;99.90;;;;;;5004666;28;20994;-65
2023/09/10 05:30:40;;;;;;;21.00;19.17;;;20.00;99.90;;;;;;5009415;28;20509;-64
2023/09/10 05:33:06;;;;;;;19.80;18.00;;;20.10;99.90;;;;;;5014477;28;20414;-64
2023/09/10 05:35:32;;;;;;;20.70;18.70;;;20.00;99.90;;;;;;5010712;28;20179;-61
2023/09/10 05:37:57;;;;;;;22.60;20.70;;;20.10;99.90;;;;;;4996750;28;20250;-65
2023/09/10 05:40:25;;;;;;;22.10;19.97;;;20.00;99.90;;;;;;5000327;28;20222;-65
2023/09/10 05:42:51;;;;;;;20.57;18.87;;;20.10;99.90;;;;;;4994475;28;20167;-65
2023/09/10 05:45:18;;;;;;;20.80;19.00;;;20.10;99.90;;;;;;5006543;28;20418;-65
2023/09/10 05:47:43;;;;;;;21.70;19.70;;;20.00;99.90;;;;;;5000145;28;20907;-64
2023/09/10 05:50:09;;;;;;;21.23;19.30;;;20.10;99.90;;;;;;5008452;28;20437;-65
2023/09/10 05:52:35;;;;;;;22.10;20.10;;;20.10;99.90;;;;;;5010910;28;20179;-61
2023/09/10 05:55:01;;;;;;;21.03;19.20;;;20.10;99.90;;;;;;5014330;28;20932;-63
2023/09/10 05:57:27;;;;;;;21.87;19.87;;;20.20;99.90;;;;;;5013983;28;20175;-64
2023/09/10 05:59:53;;;;;;;21.07;19.10;;;20.20;99.90;;;;;;5013248;28;20595;-62
2023/09/10 06:02:19;;;;;;;21.13;19.37;;;20.30;99.90;;;;;;5001280;28;20187;-65
2023/09/10 06:04:44;;;;;;;22.73;20.70;;;20.30;99.90;;;;;;5004313;28;20179;-63
2023/09/10 06:07:10;;;;;;;22.00;20.20;;;20.30;99.90;;;;;;4995702;28;20180;-65
2023/09/10 06:09:36;;;;;;;25.30;23.10;;;20.30;99.90;;;;;;5013557;28;20643;-66
2023/09/10 06:12:04;;;;;;;23.23;21.10;;;20.40;99.90;;;;;;5012890;28;20179;-66
2023/09/10 06:14:33;;;;;;;24.40;22.40;;;20.40;99.90;;;;;;5013872;28;20534;-66
2023/09/10 06:16:59;;;;;;;22.40;20.33;;;20.50;99.90;;;;;;5013981;28;20418;-66
2023/09/10 06:19:25;;;;;;;27.10;24.50;;;20.50;99.90;;;;;;5012288;28;20457;-66
2023/09/10 06:21:51;;;;;;;23.73;21.73;;;20.50;99.90;;;;;;4996102;28;20623;-66
2023/09/10 06:24:16;;;;;;;22.43;20.70;;;20.60;99.90;;;;;;5014028;28;20186;-66
2023/09/10 06:26:42;;;;;;;22.00;20.07;;;20.60;99.90;;;;;;5013318;28;20202;-66
2023/09/10 06:29:08;;;;;;;22.27;20.47;;;20.60;99.90;;;;;;5013382;28;20218;-66
2023/09/10 06:31:34;;;;;;;22.70;20.87;;;20.70;99.90;;;;;;5013154;28;20254;-61
2023/09/10 06:34:00;;;;;;;21.77;19.73;;;20.80;99.90;;;;;;5013706;28;20179;-67
2023/09/10 06:36:26;;;;;;;494.33;393.93;;;20.80;99.90;;;;;;5012669;28;20464;-65
2023/09/10 06:38:52;;;;;;;164.17;120.40;;;20.90;99.90;;;;;;5012306;28;20223;-68
2023/09/10 06:41:18;;;;;;;28.33;25.37;;;21.00;99.90;;;;;;5013509;28;20494;-68
2023/09/10 06:43:44;;;;;;;22.03;19.77;;;21.20;99.90;;;;;;5011928;28;20414;-68
2023/09/10 06:46:10;;;;;;;21.00;19.00;;;21.40;99.90;;;;;;5013469;28;20418;-68
2023/09/10 06:48:36;;;;;;;21.17;19.27;;;21.50;99.90;;;;;;5011128;28;20414;-67
2023/09/10 06:51:03;;;;;;;21.63;19.50;;;21.70;99.90;;;;;;5013548;28;20414;-68
2023/09/10 06:53:29;;;;;;;20.03;18.33;;;21.80;99.90;;;;;;5013611;28;20422;-68
2023/09/10 06:55:56;;;;;;;19.60;18.00;;;22.00;99.90;;;;;;5014764;28;20962;-67
2023/09/10 06:58:22;;;;;;;20.50;18.80;;;22.10;99.90;;;;;;5013054;28;20783;-68
2023/09/10 07:00:47;;;;;;;20.50;18.80;;;22.20;99.90;;;;;;5012640;28;20477;-68
2023/09/10 07:03:13;;;;;;;21.43;19.60;;;22.30;99.90;;;;;;5012947;28;20178;-68
2023/09/10 07:05:40;;;;;;;22.00;19.77;;;22.40;99.90;;;;;;5011927;28;20176;-69
2023/09/10 07:08:08;;;;;;;28.17;25.37;;;22.50;99.90;;;;;;5003390;28;20577;-69
2023/09/10 07:10:34;;;;;;;22.50;20.43;;;22.60;99.90;;;;;;5005560;28;20430;-66
2023/09/10 07:13:05;;;;;;;28.00;25.03;;;22.80;99.90;;;;;;4993872;28;20427;-67
2023/09/10 07:15:32;;;;;;;21.97;20.00;;;22.90;99.90;;;;;;5007733;28;20411;-69
2023/09/10 07:17:57;;;;;;;21.50;19.47;;;23.00;99.90;;;;;;5005946;28;20925;-68
2023/09/10 07:20:23;;;;;;;21.97;19.90;;;23.10;99.90;;;;;;5010719;28;20549;-67
2023/09/10 07:22:49;;;;;;;30.63;27.73;;;23.20;99.90;;;;;;5012912;28;20186;-67
2023/09/10 07:25:15;;;;;;;23.03;20.93;;;23.20;99.90;;;;;;5011490;28;20254;-70
2023/09/10 07:27:40;;;;;;;26.47;23.70;;;23.30;99.90;;;;;;5009042;28;20175;-67
2023/09/10 07:30:06;;;;;;;19.83;18.33;;;23.30;99.90;;;;;;5008084;28;20546;-66
2023/09/10 07:32:32;;;;;;;19.90;18.30;;;23.40;99.90;;;;;;5007128;28;20178;-67
2023/09/10 07:34:58;;;;;;;20.03;18.03;;;23.20;99.90;;;;;;5003371;28;20431;-67
2023/09/10 07:37:24;;;;;;;22.33;20.30;;;23.20;99.90;;;;;;5008042;28;20219;-64
2023/09/10 07:39:50;;;;;;;21.70;19.90;;;23.10;99.90;;;;;;5011278;28;20531;-67
2023/09/10 07:42:16;;;;;;;20.07;18.50;;;23.00;99.90;;;;;;5012257;28;20229;-67
2023/09/10 07:44:41;;;;;;;22.17;20.27;;;23.00;99.90;;;;;;5012402;28;20199;-67
2023/09/10 07:47:11;;;;;;;198.80;159.90;;;23.00;99.90;;;;;;5011742;28;20175;-67
2023/09/10 07:49:39;;;;;;;44.03;39.33;;;23.10;99.90;;;;;;5011821;28;20689;-67
2023/09/10 07:52:05;;;;;;;31.07;28.10;;;23.10;99.90;;;;;;5012671;28;20509;-67
2023/09/10 07:54:31;;;;;;;22.17;20.27;;;23.30;99.90;;;;;;5011735;28;20171;-67
2023/09/10 07:56:57;;;;;;;21.37;19.47;;;23.50;99.90;;;;;;5010462;28;20179;-67
2023/09/10 07:59:23;;;;;;;20.00;17.60;;;23.50;99.90;;;;;;5012146;28;20456;-67
2023/09/10 08:01:49;;;;;;;20.20;18.50;;;23.60;99.90;;;;;;5011338;28;20568;-67
2023/09/10 08:04:15;;;;;;;23.77;21.67;;;23.70;99.90;;;;;;5011835;28;20417;-67
2023/09/10 08:06:41;;;;;;;20.67;18.83;;;23.70;99.90;;;;;;5011010;28;20175;-65
2023/09/10 08:09:07;;;;;;;20.07;18.23;;;23.80;99.90;;;;;;5011411;28;20430;-69
2023/09/10 08:11:33;;;;;;;18.70;17.10;;;23.90;99.90;;;;;;5011974;28;20186;-67
2023/09/10 08:13:59;;;;;;;24.80;22.27;;;23.90;99.90;;;;;;5012161;28;20406;-67
2023/09/10 08:16:25;;;;;;;19.50;17.90;;;24.00;99.90;;;;;;5012155;28;20484;-67
2023/09/10 08:18:51;;;;;;;18.97;17.40;;;24.10;99.90;;;;;;5011905;28;20186;-67
2023/09/10 08:21:17;;;;;;;18.77;17.37;;;24.10;99.90;;;;;;5012417;28;20651;-67
2023/09/10 08:23:43;;;;;;;23.87;21.63;;;24.30;99.90;;;;;;4998255;28;20653;-66
2023/09/10 08:26:09;;;;;;;25.83;23.50;;;24.30;99.90;;;;;;4994891;28;20686;-72
2023/09/10 08:28:35;;;;;;;21.07;19.40;;;24.40;99.90;;;;;;4993038;28;20422;-70
2023/09/10 08:31:01;;;;;;;20.87;18.77;;;24.40;99.90;;;;;;5010615;28;20654;-68
2023/09/10 08:33:26;;;;;;;20.53;18.73;;;24.50;99.90;;;;;;5012482;28;20186;-68
2023/09/10 08:35:54;;;;;;;20.53;18.93;;;24.50;99.90;;;;;;5011583;28;20418;-68
2023/09/10 08:38:21;;;;;;;20.67;18.90;;;24.60;99.90;;;;;;5010652;28;20221;-68
2023/09/10 08:40:55;;;;;;;25.03;22.73;;;24.60;99.90;;;;;;5009892;28;20529;-72
2023/09/10 08:43:48;;;;;;;26.80;24.30;;;24.70;99.90;;;;;;5028720;28;20765;-68
2023/09/10 08:46:14;;;;;;;20.37;18.67;;;24.70;99.90;;;;;;5004625;28;20480;-71
2023/09/10 08:48:41;;;;;;;420.80;374.63;;;24.70;99.90;;;;;;5015440;28;20421;-69
2023/09/10 08:51:08;;;;;;;81.70;72.97;;;24.70;99.90;;;;;;5015258;28;20420;-68
2023/09/10 08:53:36;;;;;;;29.27;26.40;;;24.80;99.90;;;;;;5015622;28;20448;-69
2023/09/10 08:56:03;;;;;;;23.77;21.57;;;24.80;99.90;;;;;;5013830;28;20687;-69
2023/09/10 08:58:30;;;;;;;24.07;21.67;;;24.90;99.90;;;;;;5015717;28;20434;-69
2023/09/10 09:00:57;;;;;;;27.50;25.03;;;24.90;99.90;;;;;;5014524;28;20456;-66
2023/09/10 09:03:23;;;;;;;24.20;22.00;;;25.00;99.90;;;;;;5014227;28;20520;-69
2023/09/10 09:05:54;;;;;;;26.90;24.43;;;25.10;99.90;;;;;;5014210;28;20901;-76
2023/09/10 09:08:29;;;;;;;23.17;21.07;;;25.20;99.90;;;;;;5013152;28;20178;-68
2023/09/10 09:10:55;;;;;;;22.40;20.50;;;25.20;99.90;;;;;;5014263;28;20421;-68
2023/09/10 09:13:21;;;;;;;23.50;21.40;;;25.30;99.90;;;;;;5014278;28;20426;-68
2023/09/10 09:15:48;;;;;;;80.43;72.10;;;25.40;99.90;;;;;;5011148;28;20649;-69
2023/09/10 09:18:15;;;;;;;130.97;117.43;;;25.50;99.90;;;;;;5015302;28;20418;-69
2023/09/10 09:20:45;;;;;;;41.07;36.83;;;25.70;99.90;;;;;;5015377;28;20453;-70
2023/09/10 09:23:27;;;;;;;26.37;24.13;;;25.80;99.90;;;;;;4995848;28;20439;-70
2023/09/10 09:25:55;;;;;;;21.67;19.97;;;25.90;99.90;;;;;;4995223;28;20483;-69
2023/09/10 09:28:21;;;;;;;19.87;18.27;;;26.20;99.90;;;;;;5006686;28;20430;-69
2023/09/10 09:30:47;;;;;;;21.03;19.43;;;26.30;99.90;;;;;;5014695;28;20446;-69
2023/09/10 09:33:12;;;;;;;18.90;17.20;;;26.50;99.90;;;;;;5015232;28;20936;-69
2023/09/10 09:35:38;;;;;;;19.87;17.90;;;26.70;99.90;;;;;;5015295;28;20253;-69
2023/09/10 09:38:13;;;;;;;17.03;15.57;;;26.80;99.90;;;;;;5011147;28;20605;-69
2023/09/10 09:40:39;;;;;;;17.67;16.17;;;27.00;99.90;;;;;;5015138;28;20199;-69
2023/09/10 09:43:09;;;;;;;16.50;15.13;;;27.20;99.90;;;;;;5010461;28;21020;-69
2023/09/10 09:45:36;;;;;;;19.93;18.17;;;27.40;99.90;;;;;;5005114;28;20418;-70
2023/09/10 09:48:05;;;;;;;156.57;138.70;;;27.60;99.90;;;;;;5013691;28;20442;-70
2023/09/10 09:50:32;;;;;;;31.30;28.27;;;27.80;99.30;;;;;;5013660;28;20418;-67
2023/09/10 09:52:58;;;;;;;16.47;15.30;;;28.00;98.50;;;;;;5011815;28;20406;-67
2023/09/10 09:55:24;;;;;;;14.80;13.33;;;28.20;97.60;;;;;;5011130;28;20429;-68
2023/09/10 09:57:50;;;;;;;17.07;15.40;;;28.30;94.40;;;;;;5013740;28;20262;-67
2023/09/10 10:00:16;;;;;;;18.63;16.87;;;28.50;96.20;;;;;;5014150;28;20540;-68
2023/09/10 10:02:43;;;;;;;16.03;14.50;;;28.70;96.40;;;;;;5011636;28;20438;-68
2023/09/10 10:05:09;;;;;;;20.87;18.93;;;28.80;93.70;;;;;;5013483;28;20430;-68
2023/09/10 10:07:36;;;;;;;19.73;17.90;;;29.00;94.30;;;;;;5014142;28;20417;-66
2023/09/10 10:10:06;;;;;;;19.67;17.83;;;29.10;96.50;;;;;;5011034;28;20972;-69
2023/09/10 10:12:31;;;;;;;15.10;13.40;;;29.30;94.20;;;;;;5012679;28;20458;-68
2023/09/10 10:14:58;;;;;;;15.00;12.77;;;29.40;92.60;;;;;;5012352;28;20463;-66
2023/09/10 10:17:29;;;;;;;18.37;9.90;;;29.50;91.40;;;;;;5013460;28;20182;-68
2023/09/10 10:19:57;;;;;;;16.80;11.23;;;29.60;81.90;;;;;;5010528;28;20438;-68
2023/09/10 10:22:24;;;;;;;15.00;13.60;;;29.70;85.40;;;;;;5012349;28;20414;-68
2023/09/10 10:24:51;;;;;;;14.00;12.13;;;29.90;87.70;;;;;;5013208;28;20460;-67
2023/09/10 10:27:18;;;;;;;21.00;9.70;;;30.10;88.90;;;;;;5013915;28;20417;-69
2023/09/10 10:29:44;;;;;;;19.13;11.63;;;30.20;85.00;;;;;;5010987;28;20804;-68
2023/09/10 10:32:21;;;;;;;19.00;13.20;;;30.30;80.80;;;;;;5012407;28;20564;-74
2023/09/10 10:34:56;;;;;;;14.77;13.20;;;30.40;84.00;;;;;;5009943;28;20222;-80
2023/09/10 10:37:41;;;;;;;15.70;14.30;;;30.40;82.70;;;;;;5013682;28;20441;-83
2023/09/10 10:40:18;;;;;;;15.77;14.27;;;30.30;84.80;;;;;;5011137;28;20442;-81
2023/09/10 10:42:54;;;;;;;15.27;13.80;;;30.40;84.00;;;;;;5011476;28;20476;-85
2023/09/10 10:45:24;;;;;;;18.40;14.03;;;30.70;81.90;;;;;;5012438;28;20480;-82
2023/09/10 10:47:50;;;;;;;15.43;13.87;;;30.80;83.80;;;;;;5013358;28;20501;-75
2023/09/10 10:50:27;;;;;;;39.83;36.40;;;31.00;85.40;;;;;;5012290;28;20418;-80
2023/09/10 10:52:59;;;;;;;158.33;143.20;;;31.00;87.30;;;;;;5011602;28;20405;-78
2023/09/10 10:55:27;;;;;;;33.03;30.00;;;31.20;87.00;;;;;;5007518;28;20788;-75
2023/09/10 10:57:54;;;;;;;15.77;12.13;;;31.10;85.10;;;;;;5005091;28;20454;-69
2023/09/10 11:00:21;;;;;;;13.87;12.57;;;31.00;86.00;;;;;;5009132;28;20489;-70
2023/09/10 11:03:14;;;;;;;18.13;11.40;;;31.10;84.60;;;;;;5013064;28;20508;-70
2023/09/10 11:06:07;;;;;;;13.57;10.70;;;31.20;81.80;;;;;;5010417;28;20395;-69
2023/09/10 11:08:40;;;;;;;13.53;11.90;;;31.30;81.50;;;;;;5009325;28;20433;-69
2023/09/10 11:11:08;;;;;;;14.53;10.90;;;31.40;82.00;;;;;;5012247;28;20422;-70
2023/09/10 11:13:54;;;;;;;13.10;10.40;;;31.50;81.60;;;;;;5011224;28;20413;-71
2023/09/10 11:16:20;;;;;;;14.87;10.63;;;31.60;76.90;;;;;;5012297;28;20446;-69
2023/09/10 11:18:46;;;;;;;12.30;9.60;;;31.50;81.70;;;;;;5011773;28;20952;-67
2023/09/10 11:21:16;;;;;;;11.13;9.40;;;31.60;77.80;;;;;;5010815;28;20199;-70
2023/09/10 11:23:54;;;;;;;11.93;10.93;;;31.60;79.10;;;;;;5012792;28;20426;-68
2023/09/10 11:26:23;;;;;;;15.27;11.67;;;31.60;75.50;;;;;;5012161;28;20429;-70
2023/09/10 11:28:50;;;;;;;12.87;10.00;;;31.60;78.40;;;;;;5010808;28;20476;-70
2023/09/10 11:34:31;;;;;;;10.17;9.17;;;31.80;78.00;;;;;;5011676;28;20414;-69
2023/09/10 11:37:00;;;;;;;13.83;9.70;;;31.80;75.50;;;;;;5008232;28;20786;-70
2023/09/10 11:39:26;;;;;;;17.07;10.53;;;31.80;75.70;;;;;;5009568;28;20461;-71
2023/09/10 11:41:54;;;;;;;13.17;9.47;;;31.50;75.60;;;;;;5010592;28;20509;-64
2023/09/10 11:44:20;;;;;;;11.27;9.20;;;31.50;78.10;;;;;;5011621;28;20414;-69
2023/09/10 11:46:46;;;;;;;11.63;10.30;;;31.70;80.40;;;;;;5012209;28;20422;-69
2023/09/10 11:49:13;;;;;;;13.50;9.80;;;31.80;79.00;;;;;;5011701;28;20179;-70
2023/09/10 11:51:46;;;;;;;11.47;10.37;;;31.90;75.20;;;;;;5009533;28;20476;-69
2023/09/10 11:54:22;;;;;;;13.60;9.70;;;31.80;76.20;;;;;;5010584;28;20484;-70
2023/09/10 11:56:51;;;;;;;12.20;10.00;;;31.90;77.80;;;;;;5009833;28;20452;-70
2023/09/10 11:59:18;;;;;;;14.10;9.83;;;32.00;82.20;;;;;;5011515;28;20511;-71
2023/09/10 12:01:43;;;;;;;10.70;9.50;;;32.10;79.80;;;;;;5011349;28;20434;-70
2023/09/10 12:04:09;;;;;;;13.93;9.40;;;32.10;78.30;;;;;;5009470;28;20418;-70
2023/09/10 12:06:35;;;;;;;10.87;9.60;;;32.20;82.10;;;;;;5011940;28;20179;-71
2023/09/10 12:09:01;;;;;;;10.53;9.40;;;32.30;79.20;;;;;;5010835;28;20206;-70
2023/09/10 12:11:29;;;;;;;18.37;10.57;;;32.20;80.30;;;;;;5011929;28;20426;-70
2023/09/10 12:13:55;;;;;;;12.03;10.83;;;32.20;78.60;;;;;;5011332;28;20171;-64
2023/09/10 12:16:21;;;;;;;11.20;10.00;;;32.30;78.20;;;;;;5011637;28;20457;-70
2023/09/10 12:18:48;;;;;;;14.07;9.90;;;32.20;77.10;;;;;;5015335;28;20488;-70
2023/09/10 12:21:15;;;;;;;10.80;9.63;;;32.10;76.20;;;;;;5013793;28;20508;-70
2023/09/10 12:23:44;;;;;;;12.13;10.20;;;31.70;76.50;;;;;;5008932;28;20424;-70
2023/09/10 12:26:11;;;;;;;11.30;10.20;;;31.40;77.10;;;;;;5013047;28;20807;-70
2023/09/10 12:28:38;;;;;;;12.47;10.20;;;31.50;76.50;;;;;;5015597;28;20426;-70
2023/09/10 12:31:04;;;;;;;107.03;96.23;;;31.40;78.20;;;;;;5015356;28;20409;-70
2023/09/10 12:33:31;;;;;;;130.40;117.83;;;31.30;78.60;;;;;;5014635;28;20568;-70